Time;durP1;ratioP1;P1;durP2;ratioP2;P2;SDS_P1;SDS_P2;PMS_P1;PMS_P2;Temp;Humidity;BMP_temperature;BMP_pressure;BME280_temperature;BME280_humidity;BME280_pressure;Samples;Min_cycle;Max_cycle;Signal;HPM_P1;HPM_P2
2023/10/04 00:01:20;;;;;;;0.20;0.20;;;;;;;;;;4995733;28;20054;-88
2023/10/04 00:03:47;;;;;;;0.20;0.20;;;;;;;;;;4978023;28;20479;-88
2023/10/04 00:06:13;;;;;;;0.30;0.30;;;;;;;;;;4975261;28;20120;-87
2023/10/04 00:08:39;;;;;;;0.20;0.20;;;;;;;;;;4992061;28;20077;-86
2023/10/04 00:11:06;;;;;;;0.30;0.30;;;;;;;;;;4971294;28;20046;-87
2023/10/04 00:13:35;;;;;;;0.20;0.20;;;;;;;;;;4994083;28;20460;-87
2023/10/04 00:16:03;;;;;;;0.30;0.30;;;;;;;;;;4971729;28;20042;-87
2023/10/04 00:18:29;;;;;;;0.13;0.13;;;;;;;;;;4978078;28;20038;-88
2023/10/04 00:20:58;;;;;;;0.30;0.30;;;;;;;;;;4991570;28;20042;-87
2023/10/04 00:23:24;;;;;;;0.20;0.20;;;;;;;;;;4986060;28;20066;-88
2023/10/04 00:25:50;;;;;;;0.20;0.20;;;;;;;;;;4975111;28;20078;-87
2023/10/04 00:28:17;;;;;;;0.30;0.30;;;;;;;;;;4976208;28;20038;-87
2023/10/04 00:30:43;;;;;;;0.20;0.20;;;;;;;;;;4975669;28;20038;-85
2023/10/04 00:33:09;;;;;;;0.35;0.35;;;;;;;;;;4976068;28;20069;-87
2023/10/04 00:35:40;;;;;;;0.30;0.30;;;;;;;;;;4970917;28;20042;-88
2023/10/04 00:38:08;;;;;;;0.30;0.30;;;;;;;;;;4967324;28;20136;-87
2023/10/04 00:40:34;;;;;;;0.22;0.22;;;;;;;;;;4977895;28;20038;-87
2023/10/04 00:43:05;;;;;;;0.32;0.32;;;;;;;;;;4978894;28;20042;-87
2023/10/04 00:45:33;;;;;;;0.32;0.32;;;;;;;;;;4974727;28;20527;-87
2023/10/04 00:48:01;;;;;;;0.20;0.20;;;;;;;;;;4980345;28;20041;-88
2023/10/04 00:50:31;;;;;;;0.28;0.28;;;;;;;;;;4974882;28;20039;-88
2023/10/04 00:53:12;;;;;;;0.30;0.30;;;;;;;;;;4990314;28;20406;-87
2023/10/04 00:55:45;;;;;;;0.30;0.30;;;;;;;;;;4981216;28;20043;-85
2023/10/04 00:58:12;;;;;;;0.25;0.25;;;;;;;;;;4981875;28;20042;-86
2023/10/04 01:00:40;;;;;;;0.20;0.20;;;;;;;;;;4974473;28;20039;-86
2023/10/04 01:03:09;;;;;;;0.28;0.28;;;;;;;;;;4972916;28;20105;-87
2023/10/04 01:05:44;;;;;;;0.30;0.30;;;;;;;;;;4963318;28;20042;-88
2023/10/04 01:08:10;;;;;;;;;;;;;;;;;;4981769;28;20021;-87
2023/10/04 01:10:38;;;;;;;0.35;0.35;;;;;;;;;;4981309;28;19972;-87
2023/10/04 01:13:09;;;;;;;0.20;0.20;;;;;;;;;;4980983;28;20054;-87
2023/10/04 01:15:42;;;;;;;0.47;0.47;;;;;;;;;;4974679;28;20121;-89
2023/10/04 01:18:12;;;;;;;0.20;0.20;;;;;;;;;;4961217;28;20043;-87
2023/10/04 01:20:38;;;;;;;0.30;0.30;;;;;;;;;;4973754;28;20113;-89
2023/10/04 01:23:06;;;;;;;0.20;0.20;;;;;;;;;;4981815;28;20066;-86
2023/10/04 01:25:38;;;;;;;0.32;0.32;;;;;;;;;;4976653;28;20038;-88
2023/10/04 01:28:17;;;;;;;0.30;0.30;;;;;;;;;;4996669;28;20555;-86
2023/10/04 01:30:44;;;;;;;0.20;0.20;;;;;;;;;;4980720;28;20034;-87
2023/10/04 01:33:15;;;;;;;0.20;0.20;;;;;;;;;;4981095;28;20134;-87
2023/10/04 01:35:41;;;;;;;0.20;0.20;;;;;;;;;;4981391;28;20089;-88
2023/10/04 01:38:07;;;;;;;0.40;0.40;;;;;;;;;;4981444;28;20050;-87
2023/10/04 01:40:35;;;;;;;0.20;0.20;;;;;;;;;;4981342;28;20042;-87
2023/10/04 01:43:09;;;;;;;0.20;0.20;;;;;;;;;;4970973;28;20039;-87
2023/10/04 01:45:36;;;;;;;0.20;0.20;;;;;;;;;;4962063;28;20440;-88
2023/10/04 01:48:05;;;;;;;0.30;0.30;;;;;;;;;;4961365;28;20201;-86
2023/10/04 01:50:31;;;;;;;0.30;0.30;;;;;;;;;;4961559;28;20043;-87
2023/10/04 01:52:57;;;;;;;0.30;0.30;;;;;;;;;;4961647;28;20043;-88
2023/10/04 01:55:24;;;;;;;0.20;0.20;;;;;;;;;;4960820;28;20049;-87
2023/10/04 01:57:50;;;;;;;0.30;0.30;;;;;;;;;;4970269;28;20077;-87
2023/10/04 02:00:18;;;;;;;0.30;0.30;;;;;;;;;;4980184;28;20106;-86
2023/10/04 02:02:46;;;;;;;0.20;0.20;;;;;;;;;;4980139;28;20125;-86
2023/10/04 02:05:15;;;;;;;0.30;0.30;;;;;;;;;;4980903;28;20053;-86
2023/10/04 02:07:41;;;;;;;0.20;0.20;;;;;;;;;;4981190;28;20103;-86
2023/10/04 02:10:17;;;;;;;0.30;0.30;;;;;;;;;;4980550;28;20078;-86
2023/10/04 02:12:43;;;;;;;0.20;0.20;;;;;;;;;;4996514;28;20101;-87
2023/10/04 02:15:14;;;;;;;0.22;0.22;;;;;;;;;;4979932;28;20039;-86
2023/10/04 02:17:41;;;;;;;0.30;0.30;;;;;;;;;;4980482;28;20058;-87
2023/10/04 02:20:09;;;;;;;0.20;0.20;;;;;;;;;;4980961;28;20104;-88
2023/10/04 02:22:36;;;;;;;0.30;0.30;;;;;;;;;;4979933;28;20581;-87
2023/10/04 02:25:06;;;;;;;0.30;0.30;;;;;;;;;;4980257;28;20125;-86
2023/10/04 02:27:32;;;;;;;0.20;0.20;;;;;;;;;;4980558;28;20038;-87
2023/10/04 02:29:58;;;;;;;0.22;0.22;;;;;;;;;;4996431;28;20042;-87
2023/10/04 02:32:25;;;;;;;0.30;0.30;;;;;;;;;;4980041;28;20064;-87
2023/10/04 02:34:52;;;;;;;0.28;0.28;;;;;;;;;;4980115;28;20038;-88
2023/10/04 02:37:19;;;;;;;0.20;0.20;;;;;;;;;;4980314;28;20133;-86
2023/10/04 02:39:46;;;;;;;0.30;0.30;;;;;;;;;;4980750;28;20139;-87
2023/10/04 02:42:12;;;;;;;0.30;0.30;;;;;;;;;;4979564;28;20076;-87
2023/10/04 02:44:38;;;;;;;0.30;0.30;;;;;;;;;;4980128;28;20045;-88
2023/10/04 02:47:08;;;;;;;0.20;0.20;;;;;;;;;;4996670;28;20034;-86
2023/10/04 02:49:37;;;;;;;0.28;0.28;;;;;;;;;;4979809;28;20042;-87
2023/10/04 02:52:05;;;;;;;0.30;0.30;;;;;;;;;;4979986;28;20091;-87
2023/10/04 02:54:32;;;;;;;0.30;0.30;;;;;;;;;;4979674;28;20440;-87
2023/10/04 02:56:58;;;;;;;0.30;0.30;;;;;;;;;;4980053;28;20034;-87
2023/10/04 02:59:25;;;;;;;0.25;0.25;;;;;;;;;;4978974;28;20044;-87
2023/10/04 03:01:51;;;;;;;0.20;0.20;;;;;;;;;;4978841;28;20487;-87
2023/10/04 03:04:18;;;;;;;0.30;0.30;;;;;;;;;;4995349;28;20134;-87
2023/10/04 03:06:45;;;;;;;0.20;0.20;;;;;;;;;;4975205;28;20511;-87
2023/10/04 03:09:11;;;;;;;0.30;0.30;;;;;;;;;;4960137;28;20042;-87
2023/10/04 03:11:38;;;;;;;0.20;0.20;;;;;;;;;;4959662;28;20074;-87
2023/10/04 03:14:06;;;;;;;0.20;0.20;;;;;;;;;;4975499;28;20146;-88
2023/10/04 03:16:34;;;;;;;0.30;0.30;;;;;;;;;;4960373;28;20082;-88
2023/10/04 03:19:01;;;;;;;0.20;0.20;;;;;;;;;;4959494;28;20046;-88
2023/10/04 03:21:31;;;;;;;0.20;0.20;;;;;;;;;;4960362;28;20039;-88
2023/10/04 03:24:00;;;;;;;0.20;0.20;;;;;;;;;;4959827;28;20129;-87
2023/10/04 03:26:29;;;;;;;0.30;0.30;;;;;;;;;;4959589;28;20043;-87
2023/10/04 03:28:55;;;;;;;0.20;0.20;;;;;;;;;;4959314;28;20512;-87
2023/10/04 03:31:22;;;;;;;0.30;0.30;;;;;;;;;;4975523;28;20039;-86
2023/10/04 03:33:49;;;;;;;0.20;0.20;;;;;;;;;;4959382;28;20090;-87
2023/10/04 03:36:17;;;;;;;0.20;0.20;;;;;;;;;;4959955;28;20039;-87
2023/10/04 03:38:43;;;;;;;0.30;0.30;;;;;;;;;;4959005;28;20047;-87
2023/10/04 03:41:10;;;;;;;0.20;0.20;;;;;;;;;;4975779;28;20130;-87
2023/10/04 03:43:36;;;;;;;0.20;0.20;;;;;;;;;;4958741;28;20046;-86
2023/10/04 03:46:16;;;;;;;0.20;0.20;;;;;;;;;;4959283;28;20039;-88
2023/10/04 03:48:43;;;;;;;0.20;0.20;;;;;;;;;;4958790;28;20090;-87
2023/10/04 03:51:09;;;;;;;0.30;0.30;;;;;;;;;;4959134;28;20049;-86
2023/10/04 03:53:36;;;;;;;0.30;0.30;;;;;;;;;;4975440;28;20543;-86
2023/10/04 03:56:04;;;;;;;0.20;0.20;;;;;;;;;;4959562;28;20126;-87
2023/10/04 03:58:30;;;;;;;0.30;0.30;;;;;;;;;;4959163;28;20043;-86
2023/10/04 04:00:56;;;;;;;0.30;0.30;;;;;;;;;;4959513;28;20085;-86
2023/10/04 04:03:22;;;;;;;0.30;0.30;;;;;;;;;;4973581;28;20078;-86
2023/10/04 04:05:53;;;;;;;0.30;0.30;;;;;;;;;;4978999;28;20042;-88
2023/10/04 04:08:21;;;;;;;0.20;0.20;;;;;;;;;;4978799;28;20519;-86
2023/10/04 04:10:47;;;;;;;0.20;0.20;;;;;;;;;;4994746;28;20045;-87
2023/10/04 04:13:13;;;;;;;0.22;0.22;;;;;;;;;;4978026;28;20053;-87
2023/10/04 04:15:40;;;;;;;0.20;0.20;;;;;;;;;;4994783;28;20080;-87
2023/10/04 04:18:07;;;;;;;0.25;0.25;;;;;;;;;;4977265;28;20101;-87
2023/10/04 04:20:35;;;;;;;0.40;0.40;;;;;;;;;;4978222;28;20526;-88
2023/10/04 04:23:05;;;;;;;0.25;0.25;;;;;;;;;;4978956;28;20435;-87
2023/10/04 04:25:33;;;;;;;0.20;0.20;;;;;;;;;;4978460;28;20046;-88
2023/10/04 04:28:01;;;;;;;0.30;0.30;;;;;;;;;;4977423;28;20042;-87
2023/10/04 04:30:35;;;;;;;0.28;0.28;;;;;;;;;;4977615;28;20042;-89
2023/10/04 04:33:04;;;;;;;0.20;0.20;;;;;;;;;;4977547;28;20408;-87
2023/10/04 04:37:57;;;;;;;0.28;0.28;;;;;;;;;;4993845;28;20051;-87
2023/10/04 04:40:29;;;;;;;0.20;0.20;;;;;;;;;;4977776;28;20068;-87
2023/10/04 04:43:01;;;;;;;0.28;0.28;;;;;;;;;;4994209;28;20515;-87
2023/10/04 04:45:29;;;;;;;0.30;0.30;;;;;;;;;;4977691;28;20121;-87
2023/10/04 04:47:55;;;;;;;0.30;0.30;;;;;;;;;;4994407;28;20050;-87
2023/10/04 04:50:24;;;;;;;0.20;0.20;;;;;;;;;;4994197;28;20487;-88
2023/10/04 04:52:53;;;;;;;0.30;0.30;;;;;;;;;;4978457;28;20043;-88
2023/10/04 04:55:19;;;;;;;0.30;0.30;;;;;;;;;;4961369;28;20054;-87
2023/10/04 04:57:45;;;;;;;0.30;0.30;;;;;;;;;;4977656;28;20046;-87
2023/10/04 05:00:31;;;;;;;0.20;0.20;;;;;;;;;;4993374;28;20337;-87
2023/10/04 05:02:58;;;;;;;0.30;0.30;;;;;;;;;;4977712;28;20085;-87
2023/10/04 05:05:25;;;;;;;0.30;0.30;;;;;;;;;;4977509;28;20061;-88
2023/10/04 05:07:51;;;;;;;0.30;0.30;;;;;;;;;;4979061;28;20050;-87
2023/10/04 05:10:18;;;;;;;0.30;0.30;;;;;;;;;;4977215;28;20046;-86
2023/10/04 05:12:47;;;;;;;0.22;0.22;;;;;;;;;;4994094;28;20085;-87
2023/10/04 05:15:28;;;;;;;0.20;0.20;;;;;;;;;;4977405;28;20466;-87
2023/10/04 05:17:54;;;;;;;0.30;0.30;;;;;;;;;;4977284;28;20049;-87
2023/10/04 05:20:21;;;;;;;0.30;0.30;;;;;;;;;;4977377;28;20057;-87
2023/10/04 05:22:49;;;;;;;0.30;0.30;;;;;;;;;;4978408;28;20054;-88
2023/10/04 05:25:15;;;;;;;0.10;0.10;;;;;;;;;;4977734;28;20043;-87
2023/10/04 05:27:42;;;;;;;0.30;0.30;;;;;;;;;;4994442;28;20031;-86
2023/10/04 05:30:15;;;;;;;0.30;0.30;;;;;;;;;;4980352;28;20488;-88
2023/10/04 05:32:42;;;;;;;0.30;0.30;;;;;;;;;;4981206;28;20045;-89
2023/10/04 05:35:12;;;;;;;0.20;0.20;;;;;;;;;;4982385;28;20053;-87
2023/10/04 05:37:44;;;;;;;0.28;0.28;;;;;;;;;;4981429;28;20065;-88
2023/10/04 05:40:16;;;;;;;0.30;0.30;;;;;;;;;;4981001;28;20046;-88
2023/10/04 05:42:46;;;;;;;0.20;0.20;;;;;;;;;;4981058;28;20388;-89
2023/10/04 05:45:12;;;;;;;0.20;0.20;;;;;;;;;;4981099;28;20471;-87
2023/10/04 05:47:39;;;;;;;0.30;0.30;;;;;;;;;;4980712;28;20097;-87
2023/10/04 05:50:08;;;;;;;0.22;0.22;;;;;;;;;;4980437;28;20042;-87
2023/10/04 05:52:35;;;;;;;0.30;0.30;;;;;;;;;;4982310;28;20380;-88
2023/10/04 05:55:01;;;;;;;0.30;0.30;;;;;;;;;;4980970;28;20038;-88
2023/10/04 05:57:31;;;;;;;0.22;0.22;;;;;;;;;;4980590;28;20042;-87
2023/10/04 05:59:57;;;;;;;0.30;0.30;;;;;;;;;;4980190;28;20042;-88
2023/10/04 06:02:23;;;;;;;0.20;0.20;;;;;;;;;;4980777;28;20061;-88
2023/10/04 06:04:50;;;;;;;0.20;0.20;;;;;;;;;;4980839;28;20093;-88
2023/10/04 06:07:16;;;;;;;0.22;0.22;;;;;;;;;;4980730;28;20402;-89
2023/10/04 06:09:42;;;;;;;0.20;0.20;;;;;;;;;;4980428;28;20113;-88
2023/10/04 06:12:12;;;;;;;0.20;0.20;;;;;;;;;;4996612;28;20491;-87
2023/10/04 06:14:38;;;;;;;0.30;0.30;;;;;;;;;;4980628;28;20065;-87
2023/10/04 06:17:04;;;;;;;0.20;0.20;;;;;;;;;;4980526;28;20050;-87
2023/10/04 06:19:30;;;;;;;0.20;0.20;;;;;;;;;;4980235;28;20495;-87
2023/10/04 06:21:57;;;;;;;0.20;0.20;;;;;;;;;;4980640;28;20490;-86
2023/10/04 06:24:23;;;;;;;0.20;0.20;;;;;;;;;;4980013;28;20529;-88
2023/10/04 06:26:49;;;;;;;0.20;0.20;;;;;;;;;;4980568;28;20034;-88
2023/10/04 06:29:15;;;;;;;0.30;0.30;;;;;;;;;;4980463;28;20521;-88
2023/10/04 06:31:41;;;;;;;0.20;0.20;;;;;;;;;;4980067;28;20038;-88
2023/10/04 06:34:07;;;;;;;0.20;0.20;;;;;;;;;;4979928;28;20042;-87
2023/10/04 06:36:33;;;;;;;0.35;0.35;;;;;;;;;;4980634;28;20085;-87
2023/10/04 06:38:59;;;;;;;0.20;0.20;;;;;;;;;;4980168;28;20042;-88
2023/10/04 06:41:26;;;;;;;0.20;0.20;;;;;;;;;;4980152;28;20053;-87
2023/10/04 06:43:53;;;;;;;0.28;0.28;;;;;;;;;;4996304;28;20052;-88
2023/10/04 06:46:19;;;;;;;0.30;0.30;;;;;;;;;;4980457;28;20045;-86
2023/10/04 06:48:45;;;;;;;0.20;0.20;;;;;;;;;;4995881;28;20038;-87
2023/10/04 06:51:11;;;;;;;0.20;0.20;;;;;;;;;;4979986;28;20038;-88
2023/10/04 06:53:43;;;;;;;0.30;0.30;;;;;;;;;;4996526;28;20064;-88
2023/10/04 06:56:09;;;;;;;0.30;0.30;;;;;;;;;;4996107;28;20617;-86
2023/10/04 06:58:37;;;;;;;0.30;0.30;;;;;;;;;;4979320;28;20088;-88
2023/10/04 07:01:03;;;;;;;0.30;0.30;;;;;;;;;;4975312;28;20038;-88
2023/10/04 07:03:29;;;;;;;0.30;0.30;;;;;;;;;;4970772;28;20061;-88
2023/10/04 07:05:55;;;;;;;0.20;0.20;;;;;;;;;;4971808;28;20034;-88
2023/10/04 07:08:52;;;;;;;0.20;0.20;;;;;;;;;;4996288;28;20043;-87
2023/10/04 07:11:18;;;;;;;0.20;0.20;;;;;;;;;;4980059;28;20112;-87
2023/10/04 07:13:44;;;;;;;0.20;0.20;;;;;;;;;;4980010;28;20050;-88
2023/10/04 07:16:11;;;;;;;0.30;0.30;;;;;;;;;;4976659;28;20496;-87
2023/10/04 07:18:37;;;;;;;0.28;0.28;;;;;;;;;;4964353;28;20101;-88
2023/10/04 07:21:03;;;;;;;0.20;0.20;;;;;;;;;;4976617;28;20047;-86
2023/10/04 07:23:29;;;;;;;0.20;0.20;;;;;;;;;;4977192;28;20460;-87
2023/10/04 07:25:55;;;;;;;0.20;0.20;;;;;;;;;;4976928;28;20038;-88
2023/10/04 07:28:24;;;;;;;0.20;0.20;;;;;;;;;;4976428;28;20038;-87
2023/10/04 07:30:50;;;;;;;0.30;0.30;;;;;;;;;;4979040;28;20395;-86
2023/10/04 07:33:16;;;;;;;0.30;0.30;;;;;;;;;;4979305;28;20093;-89
2023/10/04 07:35:42;;;;;;;0.20;0.20;;;;;;;;;;4995630;28;20049;-89
2023/10/04 07:38:08;;;;;;;0.20;0.20;;;;;;;;;;4968232;28;20070;-88
2023/10/04 07:40:39;;;;;;;0.40;0.40;;;;;;;;;;4960235;28;20046;-86
2023/10/04 07:43:07;;;;;;;0.20;0.20;;;;;;;;;;4959922;28;20519;-87
2023/10/04 07:45:33;;;;;;;0.17;0.17;;;;;;;;;;4960352;28;20133;-88
2023/10/04 07:47:59;;;;;;;0.20;0.20;;;;;;;;;;4959689;28;20070;-88
2023/10/04 07:50:25;;;;;;;0.20;0.20;;;;;;;;;;4978773;28;20098;-88
2023/10/04 07:53:00;;;;;;;0.30;0.30;;;;;;;;;;4978747;28;20491;-88
2023/10/04 07:55:29;;;;;;;;;;;;;;;;;;4978861;28;20042;-88
2023/10/04 07:58:02;;;;;;;0.30;0.30;;;;;;;;;;4994532;28;19921;-87
2023/10/04 08:00:29;;;;;;;0.20;0.20;;;;;;;;;;4978747;28;20046;-86
2023/10/04 08:02:57;;;;;;;0.20;0.20;;;;;;;;;;4974663;28;20515;-91
2023/10/04 08:05:25;;;;;;;0.13;0.13;;;;;;;;;;4977744;28;20034;-89
2023/10/04 08:07:58;;;;;;;0.10;0.10;;;;;;;;;;4979603;28;20068;-87
2023/10/04 08:10:32;;;;;;;0.20;0.20;;;;;;;;;;4979549;28;20461;-88
2023/10/04 08:13:01;;;;;;;0.28;0.28;;;;;;;;;;4977802;28;20069;-87
2023/10/04 08:15:36;;;;;;;0.22;0.22;;;;;;;;;;4973600;28;20415;-89
2023/10/04 08:18:03;;;;;;;0.20;0.20;;;;;;;;;;4958227;28;20130;-88
2023/10/04 08:20:32;;;;;;;0.10;0.10;;;;;;;;;;4964369;28;20402;-88
2023/10/04 08:23:09;;;;;;;0.30;0.30;;;;;;;;;;4977247;28;20125;-89
2023/10/04 08:25:35;;;;;;;0.20;0.20;;;;;;;;;;4960613;28;20050;-89
2023/10/04 08:28:03;;;;;;;0.20;0.20;;;;;;;;;;4969526;28;20177;-87
2023/10/04 08:30:38;;;;;;;0.10;0.10;;;;;;;;;;4978872;28;20464;-88
2023/10/04 08:33:04;;;;;;;0.30;0.30;;;;;;;;;;4977028;28;20042;-87
2023/10/04 08:35:49;;;;;;;0.20;0.20;;;;;;;;;;4977683;28;20054;-88
2023/10/04 08:38:16;;;;;;;0.20;0.20;;;;;;;;;;4973972;28;20566;-88
2023/10/04 08:40:42;;;;;;;0.20;0.20;;;;;;;;;;4975396;28;20129;-88
2023/10/04 08:43:08;;;;;;;0.20;0.20;;;;;;;;;;4989319;28;20107;-88
2023/10/04 08:45:35;;;;;;;0.30;0.30;;;;;;;;;;4977595;28;20129;-88
2023/10/04 08:48:02;;;;;;;0.20;0.20;;;;;;;;;;4969351;28;20039;-87
2023/10/04 08:50:40;;;;;;;0.10;0.10;;;;;;;;;;4993768;28;20113;-88
2023/10/04 08:53:12;;;;;;;0.20;0.20;;;;;;;;;;4976173;28;20066;-88
2023/10/04 08:55:41;;;;;;;0.20;0.20;;;;;;;;;;4978950;28;20125;-87
2023/10/04 08:58:07;;;;;;;0.22;0.22;;;;;;;;;;4977214;28;20062;-88
2023/10/04 09:00:38;;;;;;;0.20;0.20;;;;;;;;;;4977935;28;20042;-89
2023/10/04 09:03:05;;;;;;;0.20;0.20;;;;;;;;;;4978996;28;20066;-88
2023/10/04 09:05:39;;;;;;;0.20;0.20;;;;;;;;;;4976310;28;20038;-87
2023/10/04 09:08:05;;;;;;;0.28;0.28;;;;;;;;;;4981638;28;20108;-87
2023/10/04 09:10:36;;;;;;;0.20;0.20;;;;;;;;;;4982048;28;20120;-89
2023/10/04 09:13:05;;;;;;;0.20;0.20;;;;;;;;;;4997602;28;20073;-87
2023/10/04 09:15:32;;;;;;;0.20;0.20;;;;;;;;;;4982031;28;20064;-89
2023/10/04 09:18:04;;;;;;;0.22;0.22;;;;;;;;;;4982636;28;20042;-89
2023/10/04 09:20:35;;;;;;;0.20;0.20;;;;;;;;;;4981648;28;20039;-87
2023/10/04 09:23:02;;;;;;;0.30;0.30;;;;;;;;;;4981604;28;20054;-88
2023/10/04 09:25:39;;;;;;;0.10;0.10;;;;;;;;;;4981928;28;20490;-91
2023/10/04 09:28:08;;;;;;;0.30;0.30;;;;;;;;;;4977858;28;20152;-91
2023/10/04 09:30:36;;;;;;;0.30;0.30;;;;;;;;;;4983417;28;20042;-92
2023/10/04 09:33:07;;;;;;;0.20;0.20;;;;;;;;;;5000205;28;20042;-90
2023/10/04 09:35:51;;;;;;;0.10;0.10;;;;;;;;;;4992764;28;20081;-91
2023/10/04 09:38:21;;;;;;;0.17;0.17;;;;;;;;;;4975372;28;20054;-90
2023/10/04 09:40:55;;;;;;;0.20;0.20;;;;;;;;;;4990952;28;20066;-90
2023/10/04 09:43:37;;;;;;;0.40;0.40;;;;;;;;;;4964471;28;20039;-90
2023/10/04 09:46:09;;;;;;;0.17;0.17;;;;;;;;;;4964906;28;20187;-91
2023/10/04 09:48:37;;;;;;;0.32;0.32;;;;;;;;;;4963718;28;20093;-90
2023/10/04 09:51:07;;;;;;;0.10;0.10;;;;;;;;;;4963025;28;20039;-90
2023/10/04 09:53:40;;;;;;;0.28;0.28;;;;;;;;;;4964192;28;20054;-90
2023/10/04 09:56:11;;;;;;;0.20;0.20;;;;;;;;;;4964792;28;20053;-89
2023/10/04 09:58:44;;;;;;;0.30;0.30;;;;;;;;;;4964560;28;20042;-90
2023/10/04 10:01:14;;;;;;;0.30;0.30;;;;;;;;;;4964965;28;20137;-90
2023/10/04 10:04:08;;;;;;;0.10;0.10;;;;;;;;;;4963622;28;20125;-90
2023/10/04 10:06:38;;;;;;;0.10;0.10;;;;;;;;;;4964342;28;20042;-90
2023/10/04 10:09:11;;;;;;;0.20;0.20;;;;;;;;;;4964259;28;20101;-90
2023/10/04 10:11:39;;;;;;;0.10;0.10;;;;;;;;;;4979713;28;20086;-90
2023/10/04 10:14:10;;;;;;;0.10;0.10;;;;;;;;;;4963424;28;20583;-90
2023/10/04 10:16:42;;;;;;;0.30;0.30;;;;;;;;;;4980261;28;20506;-90
2023/10/04 10:19:09;;;;;;;0.17;0.17;;;;;;;;;;4962755;28;20384;-90
2023/10/04 10:22:11;;;;;;;0.20;0.20;;;;;;;;;;4978662;28;20070;-90
2023/10/04 10:24:45;;;;;;;0.20;0.20;;;;;;;;;;4948618;28;20062;-90
2023/10/04 10:27:13;;;;;;;0.45;0.45;;;;;;;;;;4963114;28;20043;-91
2023/10/04 10:29:40;;;;;;;0.20;0.20;;;;;;;;;;4962255;28;20046;-90
2023/10/04 10:32:13;;;;;;;0.20;0.20;;;;;;;;;;4961589;28;20047;-90
2023/10/04 10:34:39;;;;;;;0.13;0.13;;;;;;;;;;4962438;28;20054;-89
2023/10/04 10:37:10;;;;;;;0.17;0.17;;;;;;;;;;4962533;28;20046;-88
2023/10/04 10:39:44;;;;;;;0.25;0.25;;;;;;;;;;4947318;28;20065;-91
2023/10/04 10:42:11;;;;;;;0.35;0.35;;;;;;;;;;4962647;28;20145;-91
2023/10/04 10:44:39;;;;;;;0.20;0.20;;;;;;;;;;4962056;28;20081;-90
2023/10/04 10:47:14;;;;;;;0.40;0.40;;;;;;;;;;4963465;28;20130;-90
2023/10/04 10:49:44;;;;;;;0.30;0.30;;;;;;;;;;4963335;28;20074;-90
2023/10/04 10:52:49;;;;;;;0.28;0.28;;;;;;;;;;4962918;28;20039;-91
2023/10/04 10:55:19;;;;;;;0.10;0.10;;;;;;;;;;4939630;29;20055;-90
2023/10/04 10:57:48;;;;;;;0.17;0.17;;;;;;;;;;4909202;29;20039;-91
2023/10/04 11:00:23;;;;;;;0.20;0.20;;;;;;;;;;4934760;28;20579;-90
2023/10/04 11:02:53;;;;;;;0.30;0.30;;;;;;;;;;4978896;28;20051;-90
2023/10/04 11:05:21;;;;;;;0.20;0.20;;;;;;;;;;4962374;28;20130;-90
2023/10/04 11:07:48;;;;;;;0.20;0.20;;;;;;;;;;4963135;28;20441;-91
2023/10/04 11:10:19;;;;;;;0.30;0.30;;;;;;;;;;4962239;28;20101;-90
2023/10/04 11:12:46;;;;;;;0.20;0.20;;;;;;;;;;4962564;28;20066;-90
2023/10/04 11:15:12;;;;;;;0.30;0.30;;;;;;;;;;4961858;28;20559;-91
2023/10/04 11:17:39;;;;;;;0.20;0.20;;;;;;;;;;4961645;28;20515;-91
2023/10/04 11:20:09;;;;;;;0.10;0.10;;;;;;;;;;4961372;28;20082;-90
2023/10/04 11:22:36;;;;;;;0.10;0.10;;;;;;;;;;4962763;28;20072;-91
2023/10/04 11:25:02;;;;;;;0.30;0.30;;;;;;;;;;4962024;28;20039;-90
2023/10/04 11:27:28;;;;;;;0.20;0.20;;;;;;;;;;4960846;28;20403;-90
2023/10/04 11:29:55;;;;;;;0.10;0.10;;;;;;;;;;4961741;28;20039;-90
2023/10/04 11:32:27;;;;;;;0.20;0.20;;;;;;;;;;4961707;28;20039;-91
2023/10/04 11:34:54;;;;;;;0.20;0.20;;;;;;;;;;4961473;28;20093;-91
2023/10/04 11:37:20;;;;;;;0.30;0.30;;;;;;;;;;4962056;28;20435;-90
2023/10/04 11:39:46;;;;;;;0.20;0.20;;;;;;;;;;4961348;28;20521;-90
2023/10/04 11:42:17;;;;;;;0.10;0.10;;;;;;;;;;4961213;28;20042;-90
2023/10/04 11:44:43;;;;;;;0.22;0.22;;;;;;;;;;4961336;28;20047;-90
2023/10/04 11:47:09;;;;;;;0.20;0.20;;;;;;;;;;4960512;28;20049;-91
2023/10/04 11:49:38;;;;;;;0.20;0.20;;;;;;;;;;4961281;28;20408;-91
2023/10/04 11:52:09;;;;;;;0.20;0.20;;;;;;;;;;4961321;28;20417;-89
2023/10/04 11:54:44;;;;;;;0.20;0.20;;;;;;;;;;4961637;28;20023;-90
2023/10/04 11:57:11;;;;;;;0.30;0.30;;;;;;;;;;4961119;28;20053;-91
2023/10/04 11:59:39;;;;;;;0.22;0.22;;;;;;;;;;4960810;28;20045;-89
2023/10/04 12:02:07;;;;;;;0.13;0.13;;;;;;;;;;4961025;28;20050;-89
2023/10/04 12:04:36;;;;;;;0.20;0.20;;;;;;;;;;4960090;28;20051;-91
2023/10/04 12:07:04;;;;;;;0.10;0.10;;;;;;;;;;4961764;28;20046;-90
2023/10/04 12:09:33;;;;;;;0.15;0.15;;;;;;;;;;4960276;28;20038;-90
2023/10/04 12:12:02;;;;;;;0.20;0.20;;;;;;;;;;4960101;28;20061;-89
2023/10/04 12:14:31;;;;;;;0.10;0.10;;;;;;;;;;4960259;28;20039;-89
2023/10/04 12:17:03;;;;;;;0.13;0.13;;;;;;;;;;4961582;28;20053;-91
2023/10/04 12:19:32;;;;;;;0.22;0.22;;;;;;;;;;4961143;28;20178;-88
2023/10/04 12:22:08;;;;;;;0.22;0.22;;;;;;;;;;4960930;28;20176;-88
2023/10/04 12:24:35;;;;;;;0.20;0.20;;;;;;;;;;4976759;28;20050;-89
2023/10/04 12:27:01;;;;;;;0.15;0.15;;;;;;;;;;4960527;28;20049;-91
2023/10/04 12:29:32;;;;;;;0.20;0.20;;;;;;;;;;4960363;28;20034;-89
2023/10/04 12:31:58;;;;;;;0.20;0.20;;;;;;;;;;4975796;28;20113;-88
2023/10/04 12:34:24;;;;;;;0.20;0.20;;;;;;;;;;4960068;28;20051;-89
2023/10/04 12:36:51;;;;;;;0.20;0.20;;;;;;;;;;4959978;28;20109;-88
2023/10/04 12:39:17;;;;;;;0.10;0.10;;;;;;;;;;4964124;28;20094;-89
2023/10/04 12:41:46;;;;;;;0.17;0.17;;;;;;;;;;4964753;28;20447;-90
2023/10/04 12:44:13;;;;;;;0.10;0.10;;;;;;;;;;4964169;28;20404;-90
2023/10/04 12:46:39;;;;;;;0.20;0.20;;;;;;;;;;4965381;28;20043;-89
2023/10/04 12:49:09;;;;;;;0.20;0.20;;;;;;;;;;4964623;28;20551;-90
2023/10/04 12:51:35;;;;;;;0.20;0.20;;;;;;;;;;4981068;28;20230;-89
2023/10/04 12:54:02;;;;;;;0.20;0.20;;;;;;;;;;4947984;28;20132;-90
2023/10/04 12:56:29;;;;;;;0.30;0.30;;;;;;;;;;4980431;28;20046;-88
2023/10/04 12:58:55;;;;;;;0.10;0.10;;;;;;;;;;4980494;28;20051;-90
2023/10/04 13:01:22;;;;;;;0.10;0.10;;;;;;;;;;4963731;28;20042;-89
2023/10/04 13:03:48;;;;;;;0.20;0.20;;;;;;;;;;4963988;28;20089;-89
2023/10/04 13:06:15;;;;;;;0.28;0.28;;;;;;;;;;4964801;28;20049;-89
2023/10/04 13:08:44;;;;;;;0.20;0.20;;;;;;;;;;4975383;28;20046;-90
2023/10/04 13:11:11;;;;;;;0.20;0.20;;;;;;;;;;4983962;28;20125;-91
2023/10/04 13:13:39;;;;;;;0.20;0.20;;;;;;;;;;4983840;28;20058;-89
2023/10/04 13:16:07;;;;;;;0.20;0.20;;;;;;;;;;4983116;28;20133;-89
2023/10/04 13:18:34;;;;;;;0.20;0.20;;;;;;;;;;4983316;28;20057;-90
2023/10/04 13:21:00;;;;;;;0.10;0.10;;;;;;;;;;4983831;28;20517;-91
2023/10/04 13:23:26;;;;;;;0.30;0.30;;;;;;;;;;4982413;28;20043;-90
2023/10/04 13:25:53;;;;;;;0.20;0.20;;;;;;;;;;4983918;28;20125;-90
2023/10/04 13:28:19;;;;;;;0.30;0.30;;;;;;;;;;4999492;28;20123;-90
2023/10/04 13:30:45;;;;;;;0.20;0.20;;;;;;;;;;4998588;28;20050;-90
2023/10/04 13:33:17;;;;;;;0.30;0.30;;;;;;;;;;4982744;28;20129;-89
2023/10/04 13:35:43;;;;;;;0.17;0.17;;;;;;;;;;4983675;28;20078;-90
2023/10/04 13:38:09;;;;;;;0.10;0.10;;;;;;;;;;4982994;28;20050;-89
2023/10/04 13:40:35;;;;;;;0.20;0.20;;;;;;;;;;4998936;28;20521;-90
2023/10/04 13:43:06;;;;;;;0.10;0.10;;;;;;;;;;4982800;28;20082;-89
2023/10/04 13:45:35;;;;;;;0.20;0.20;;;;;;;;;;4983099;28;20043;-90
2023/10/04 13:48:07;;;;;;;0.20;0.20;;;;;;;;;;4982250;28;20059;-90
2023/10/04 13:50:37;;;;;;;0.13;0.13;;;;;;;;;;4997418;28;20042;-91
2023/10/04 13:53:09;;;;;;;0.10;0.10;;;;;;;;;;4982767;28;20133;-90
2023/10/04 13:55:39;;;;;;;0.20;0.20;;;;;;;;;;4983453;28;20049;-91
2023/10/04 13:58:08;;;;;;;0.20;0.20;;;;;;;;;;4982690;28;20401;-89
2023/10/04 14:00:43;;;;;;;0.20;0.20;;;;;;;;;;4998870;28;20528;-89
2023/10/04 14:03:10;;;;;;;0.30;0.30;;;;;;;;;;4982278;28;20054;-90
2023/10/04 14:05:36;;;;;;;0.10;0.10;;;;;;;;;;4982795;28;20096;-91
2023/10/04 14:08:03;;;;;;;0.30;0.30;;;;;;;;;;4982339;28;20045;-88
2023/10/04 14:10:30;;;;;;;0.20;0.20;;;;;;;;;;4982462;28;20498;-89
2023/10/04 14:12:57;;;;;;;0.20;0.20;;;;;;;;;;4983083;28;20046;-90
2023/10/04 14:15:25;;;;;;;0.10;0.10;;;;;;;;;;4982713;28;20050;-89
2023/10/04 14:17:52;;;;;;;0.22;0.22;;;;;;;;;;4982719;28;20580;-89
2023/10/04 14:20:20;;;;;;;0.20;0.20;;;;;;;;;;4981720;28;20042;-89
2023/10/04 14:22:48;;;;;;;0.15;0.15;;;;;;;;;;4984634;28;20058;-89
2023/10/04 14:25:14;;;;;;;0.10;0.10;;;;;;;;;;4982325;28;20052;-89
2023/10/04 14:27:41;;;;;;;0.15;0.15;;;;;;;;;;4982572;28;20044;-89
2023/10/04 14:30:24;;;;;;;0.20;0.20;;;;;;;;;;4998317;28;20101;-89
2023/10/04 14:32:51;;;;;;;0.20;0.20;;;;;;;;;;4982861;28;20476;-88
2023/10/04 14:35:19;;;;;;;0.20;0.20;;;;;;;;;;4982920;28;20046;-90
2023/10/04 14:37:46;;;;;;;0.10;0.10;;;;;;;;;;4967147;28;20044;-89
2023/10/04 14:40:17;;;;;;;0.15;0.15;;;;;;;;;;4982197;28;20038;-90
2023/10/04 14:42:45;;;;;;;0.30;0.30;;;;;;;;;;4982509;28;20125;-90
2023/10/04 14:45:11;;;;;;;0.20;0.20;;;;;;;;;;4981845;28;20070;-90
2023/10/04 14:47:38;;;;;;;0.15;0.15;;;;;;;;;;4998803;28;20479;-90
2023/10/04 14:50:04;;;;;;;0.30;0.30;;;;;;;;;;4982256;28;20096;-90
2023/10/04 14:52:33;;;;;;;0.10;0.10;;;;;;;;;;4981380;28;20038;-90
2023/10/04 14:55:01;;;;;;;0.20;0.20;;;;;;;;;;4982516;28;20505;-90